Time;durP1;ratioP1;P1;durP2;ratioP2;P2;SDS_P1;SDS_P2;PMS_P1;PMS_P2;Temp;Humidity;BMP_temperature;BMP_pressure;BME280_temperature;BME280_humidity;BME280_pressure;Samples;Min_cycle;Max_cycle;Signal;HPM_P1;HPM_P2
2022/02/04 00:08:45;;;;;;;8.35;5.95;;;5.30;78.60;;;4.25;65.30;94493.63;6129303;23;20184;-92
2022/02/04 00:22:55;;;;;;;10.02;6.10;;;5.30;78.60;;;4.22;64.99;94502.50;6133884;23;20176;-90
2022/02/04 00:28:13;;;;;;;8.85;5.93;;;5.30;78.70;;;4.29;64.83;94515.66;6153639;23;20476;-91
2022/02/04 00:30:49;;;;;;;12.40;6.13;;;5.30;78.70;;;4.34;64.95;94505.59;6106453;23;20199;-91
2022/02/04 00:33:18;;;;;;;9.90;6.00;;;5.30;78.70;;;4.25;65.10;94494.41;6130472;23;20177;-91
2022/02/04 00:35:55;;;;;;;10.55;6.25;;;5.30;78.70;;;4.35;64.92;94516.81;6106086;23;20205;-91
2022/02/04 00:38:32;;;;;;;14.30;7.22;;;5.30;78.80;;;4.31;65.24;94505.94;6083401;23;20204;-91
2022/02/04 00:41:06;;;;;;;10.43;6.50;;;5.30;78.80;;;4.36;64.79;94513.22;6107141;23;20201;-91
2022/02/04 00:43:37;;;;;;;10.15;6.60;;;5.30;78.80;;;4.35;64.82;94520.22;6106932;23;20200;-91
2022/02/04 00:46:14;;;;;;;11.40;6.75;;;5.40;78.80;;;4.31;64.62;94511.94;6105972;23;20184;-88
2022/02/04 00:49:19;;;;;;;12.27;6.80;;;5.40;78.90;;;4.31;65.07;94517.13;6111565;23;20208;-91
2022/02/04 00:52:09;;;;;;;10.57;6.40;;;5.40;78.80;;;4.29;64.94;94520.88;6129722;23;20181;-92
2022/02/04 00:55:00;;;;;;;9.13;6.20;;;5.50;78.80;;;4.39;65.12;94542.25;6129725;23;20198;-92
2022/02/04 01:26:05;;;;;;;11.48;6.13;;;5.40;78.90;;;4.38;65.06;94511.28;6108434;23;20193;-91
2022/02/04 01:28:43;;;;;;;11.13;5.85;;;5.40;78.90;;;4.37;65.06;94497.50;6108056;23;20276;-91
2022/02/04 01:31:17;;;;;;;9.85;6.30;;;5.30;78.90;;;4.42;65.26;94491.78;6153104;23;20169;-88
2022/02/04 01:33:57;;;;;;;10.70;6.47;;;5.40;79.00;;;4.42;65.05;94482.22;6105173;23;20181;-91
2022/02/04 01:36:26;;;;;;;11.02;5.97;;;5.40;78.90;;;4.54;65.08;94487.06;6129078;23;20531;-91
2022/02/04 01:38:57;;;;;;;8.55;5.55;;;5.50;79.00;;;4.46;65.11;94465.34;6106142;23;20260;-91
2022/02/04 01:41:28;;;;;;;9.45;5.53;;;5.50;79.00;;;4.53;64.97;94468.09;6105428;23;20174;-91
2022/02/04 01:43:57;;;;;;;11.35;5.43;;;5.40;79.00;;;4.58;65.21;94462.41;6104822;23;20716;-91
2022/02/04 01:46:30;;;;;;;7.55;5.25;;;5.50;79.00;;;4.60;65.21;94460.44;6154030;23;20181;-91
2022/02/04 01:48:58;;;;;;;9.40;5.70;;;5.50;79.00;;;4.54;65.04;94438.56;6105985;23;20204;-92
2022/02/04 01:51:28;;;;;;;7.75;5.75;;;5.60;79.10;;;4.58;64.72;94442.44;6105186;23;20177;-91
2022/02/04 01:53:57;;;;;;;9.45;5.65;;;5.60;79.00;;;4.62;65.11;94446.31;6129300;23;20188;-91
2022/02/04 01:56:27;;;;;;;8.10;5.57;;;5.60;78.90;;;4.58;65.09;94434.63;6129266;23;20212;-91
2022/02/04 01:58:56;;;;;;;9.13;5.70;;;5.60;78.90;;;4.63;64.95;94441.94;6082823;23;20166;-91
2022/02/04 02:01:24;;;;;;;9.57;5.63;;;5.60;78.90;;;4.59;64.76;94441.47;6106334;23;20181;-91
2022/02/04 02:03:53;;;;;;;8.30;5.57;;;5.60;78.80;;;4.56;64.65;94436.59;6130691;23;20505;-90
2022/02/04 02:06:50;;;;;;;9.40;6.05;;;5.70;78.80;;;4.48;64.72;94447.81;6133705;23;20174;-91
2022/02/04 02:09:33;;;;;;;8.25;5.78;;;5.60;78.60;;;4.41;64.76;94446.84;6131070;23;20232;-91
2022/02/04 02:12:08;;;;;;;9.57;5.82;;;5.60;78.50;;;4.39;65.00;94448.78;6084768;23;20169;-92
2022/02/04 02:14:39;;;;;;;9.40;5.43;;;5.50;78.40;;;4.33;64.57;94446.84;6106890;23;20660;-91
2022/02/04 02:48:04;;;;;;;11.15;6.03;;;5.20;78.40;;;3.97;64.71;94445.44;6107142;23;20285;-92
2022/02/04 02:59:12;;;;;;;15.55;8.02;;;5.10;78.30;;;3.74;65.04;94457.44;6134951;23;20280;-91
2022/02/04 03:01:55;;;;;;;10.75;6.85;;;4.90;78.20;;;3.69;65.15;94460.50;6130486;23;20184;-91
2022/02/04 03:04:28;;;;;;;9.73;6.70;;;4.90;78.40;;;3.61;65.12;94455.28;6106126;23;20201;-91
2022/02/04 03:06:56;;;;;;;9.63;6.10;;;4.90;78.30;;;3.54;64.93;94457.72;6131246;23;20261;-91
2022/02/04 03:09:27;;;;;;;9.15;6.53;;;4.90;78.30;;;3.51;65.00;94461.44;6130245;23;20279;-91
2022/02/04 03:11:59;;;;;;;10.65;6.70;;;4.80;78.20;;;3.48;65.08;94469.53;6106639;23;20204;-91
2022/02/04 03:14:31;;;;;;;9.80;6.32;;;4.80;78.10;;;3.34;64.78;94450.25;6130363;23;20228;-91
2022/02/04 03:17:16;;;;;;;8.35;5.68;;;4.70;78.10;;;3.35;64.98;94464.81;6085871;23;20205;-91
2022/02/04 03:19:52;;;;;;;11.80;6.10;;;4.60;77.90;;;3.26;64.76;94465.75;6130034;23;20225;-92
2022/02/04 03:22:52;;;;;;;11.20;6.30;;;4.60;78.20;;;3.25;64.89;94455.53;6130510;23;20177;-91
2022/02/04 03:25:23;;;;;;;9.93;5.60;;;4.50;78.10;;;3.16;64.98;94442.56;6130635;23;20201;-91
2022/02/04 03:27:59;;;;;;;9.98;5.38;;;4.50;78.20;;;3.14;65.14;94446.28;6085051;23;20244;-91
2022/02/04 03:30:41;;;;;;;8.98;5.40;;;4.50;78.30;;;3.26;64.93;94481.31;6082303;23;20231;-91
2022/02/04 03:33:24;;;;;;;9.70;5.75;;;4.40;78.30;;;3.14;65.10;94467.81;6130791;23;20173;-91
2022/02/04 03:36:20;;;;;;;8.93;6.00;;;4.30;78.20;;;3.18;64.97;94487.25;6107562;23;20200;-91
2022/02/04 03:38:48;;;;;;;10.05;5.88;;;4.40;78.50;;;3.09;64.75;94484.81;6082274;23;20170;-92
2022/02/04 03:41:43;;;;;;;10.05;6.18;;;4.40;78.20;;;3.02;65.00;94495.78;6106757;23;20174;-91
2022/02/04 03:44:59;;;;;;;;;;;;;;;;;;;;;
2022/02/04 03:48:37;;;;;;;8.30;6.13;;;4.20;78.10;;;2.87;65.44;94494.75;6053679;23;20186;-92
2022/02/04 03:51:42;;;;;;;9.75;6.50;;;4.10;78.50;;;2.91;65.65;94500.44;6101936;23;20732;-92
2022/02/04 03:54:39;;;;;;;12.43;6.43;;;4.20;78.70;;;2.91;65.74;94498.66;6131060;23;20190;-92
2022/02/04 03:57:10;;;;;;;9.73;6.60;;;4.10;78.60;;;2.95;65.48;94492.19;6106341;23;20205;-91
2022/02/04 04:00:00;;;;;;;12.85;6.82;;;4.20;79.60;;;3.05;65.76;94489.47;6085093;23;20318;-92
2022/02/04 04:02:44;;;;;;;13.43;7.72;;;4.20;79.00;;;3.14;65.86;94498.13;6130697;23;20162;-91
2022/02/04 04:05:46;;;;;;;12.77;7.00;;;4.20;79.30;;;3.16;65.60;94489.22;6129389;23;20204;-92
2022/02/04 04:08:29;;;;;;;15.52;7.28;;;4.20;79.30;;;3.26;65.65;94489.09;6154782;23;20181;-92
2022/02/04 04:11:46;;;;;;;15.30;6.82;;;4.20;79.30;;;3.43;65.85;94502.91;6130258;23;20193;-92
2022/02/04 04:14:43;;;;;;;13.52;7.43;;;4.30;79.60;;;3.46;65.81;94481.84;6134301;23;20216;-92
2022/02/04 04:18:11;;;;;;;;;;;;;;;;;;;;;
2022/02/04 04:21:11;;;;;;;10.65;6.53;;;4.50;79.70;;;3.64;65.57;94475.75;6127386;23;20220;-92
2022/02/04 04:23:46;;;;;;;10.15;6.65;;;4.50;79.60;;;3.74;65.45;94480.78;6153689;23;20693;-92
2022/02/04 04:26:21;;;;;;;11.57;6.65;;;4.60;79.50;;;3.86;65.90;94471.69;6130514;23;20181;-91
2022/02/04 04:28:52;;;;;;;11.07;6.60;;;4.70;79.70;;;3.87;65.78;94467.31;6105869;23;20252;-91
2022/02/04 04:32:08;;;;;;;11.48;6.38;;;4.70;79.60;;;3.93;65.74;94471.84;6109322;23;20679;-92
2022/02/04 04:35:47;;;;;;;12.18;7.47;;;4.80;79.60;;;3.91;65.65;94464.25;6106317;23;20197;-91
2022/02/04 04:38:36;;;;;;;11.15;6.68;;;4.80;79.60;;;4.01;65.56;94472.66;6152684;23;20216;-91
2022/02/04 05:28:10;;;;;;;5.82;3.72;;;5.90;80.00;;;5.07;65.97;94503.03;6051676;23;20526;-93
2022/02/04 05:30:41;;;;;;;5.72;4.35;;;5.90;80.00;;;5.06;65.97;94519.59;6027419;23;20234;-95
2022/02/04 05:33:25;;;;;;;7.07;4.15;;;6.00;80.00;;;5.17;66.07;94532.22;6060330;23;20196;-93
2022/02/04 05:36:02;;;;;;;8.77;4.55;;;6.00;80.10;;;5.16;66.12;94522.81;6131653;23;20211;-92
2022/02/04 05:38:35;;;;;;;5.78;4.63;;;6.10;80.10;;;5.19;66.06;94519.06;6108511;23;20173;-92
2022/02/04 05:41:13;;;;;;;8.52;5.18;;;6.10;80.20;;;5.19;65.94;94524.25;6108520;23;20169;-92
2022/02/04 05:43:44;;;;;;;6.03;4.93;;;6.10;80.10;;;5.23;66.16;94528.16;6107791;23;20224;-94
2022/02/04 05:46:45;;;;;;;9.18;5.10;;;6.20;81.00;;;5.32;66.39;94540.13;6106641;23;20675;-93
2022/02/04 05:50:00;;;;;;;10.85;5.35;;;6.10;80.10;;;5.30;65.95;94523.91;6107789;23;20201;-94
2022/02/04 05:52:49;;;;;;;7.50;4.72;;;6.20;80.10;;;5.39;65.75;94540.28;6155992;23;20177;-94
2022/02/04 05:58:32;;;;;;;9.25;4.78;;;6.30;80.00;;;5.41;65.78;94539.13;6108165;23;20181;-94
2022/02/04 06:24:22;;;;;;;7.63;5.68;;;6.40;80.00;;;5.45;66.26;94581.22;6125975;23;20230;-92
2022/02/04 06:29:41;;;;;;;10.38;6.88;;;6.40;80.00;;;5.43;66.36;94568.41;6111373;23;20206;-92
2022/02/04 06:32:09;;;;;;;10.45;7.05;;;6.40;80.00;;;5.45;66.38;94563.81;6101390;23;20182;-92
2022/02/04 06:34:37;;;;;;;10.38;6.22;;;6.50;80.10;;;5.56;66.05;94577.44;6077776;23;20201;-93
2022/02/04 06:37:09;;;;;;;9.20;6.03;;;6.50;80.10;;;5.59;66.09;94575.31;6123607;23;20198;-93
2022/02/04 06:39:39;;;;;;;9.05;6.20;;;6.50;80.10;;;5.59;66.23;94577.09;6123765;23;20443;-95
2022/02/04 06:42:06;;;;;;;9.50;6.22;;;6.50;80.90;;;5.59;66.16;94580.53;6101806;23;20229;-93
2022/02/04 06:44:39;;;;;;;8.43;5.90;;;6.50;80.00;;;5.66;65.87;94590.25;6078598;23;20280;-93
2022/02/04 06:47:09;;;;;;;8.25;6.03;;;6.60;80.10;;;5.64;66.07;94589.59;6101906;23;20248;-93
2022/02/04 06:49:37;;;;;;;9.00;6.32;;;6.50;80.00;;;5.65;66.07;94584.25;6101858;23;20198;-94
2022/02/04 06:52:06;;;;;;;9.18;6.07;;;6.60;80.10;;;5.74;65.98;94596.22;6125800;23;20479;-94
2022/02/04 06:54:35;;;;;;;8.20;5.90;;;6.60;80.10;;;5.75;66.06;94602.25;6102530;23;20198;-94
2022/02/04 06:57:03;;;;;;;9.23;6.53;;;6.60;80.10;;;5.73;66.06;94593.81;6101703;23;20201;-92
2022/02/04 06:59:33;;;;;;;9.48;6.70;;;6.60;80.00;;;5.73;65.80;94594.59;6101360;23;20198;-95
2022/02/04 07:02:07;;;;;;;9.52;6.43;;;6.60;80.10;;;5.73;66.08;94583.41;6101881;23;20181;-94
2022/02/04 07:04:36;;;;;;;10.55;6.63;;;6.60;80.00;;;5.83;66.04;94606.59;6101861;23;20232;-94
2022/02/04 07:07:05;;;;;;;9.85;7.32;;;6.60;80.20;;;5.81;65.97;94601.59;6101701;23;20186;-95
2022/02/04 07:12:31;;;;;;;12.57;8.18;;;6.70;80.20;;;5.91;66.03;94609.19;6104230;23;20186;-94
2022/02/04 07:20:03;;;;;;;13.82;9.07;;;6.80;80.30;;;5.98;65.96;94620.53;6101126;23;20277;-92
2022/02/04 07:22:36;;;;;;;13.88;9.18;;;6.80;80.30;;;6.04;66.01;94621.66;6100452;23;20212;-93
2022/02/04 07:25:06;;;;;;;17.00;11.93;;;6.90;80.30;;;6.07;66.21;94621.31;6074894;23;20233;-91
2022/02/04 07:27:37;;;;;;;16.75;10.63;;;6.90;80.30;;;6.11;66.11;94632.22;6050793;23;20181;-92
2022/02/04 07:30:27;;;;;;;12.00;8.95;;;6.90;80.30;;;6.18;65.84;94627.94;6079024;23;20203;-93
2022/02/04 07:33:15;;;;;;;14.73;10.40;;;7.00;80.40;;;6.20;66.02;94633.78;6075248;23;20268;-93
2022/02/04 07:40:53;;;;;;;14.43;9.82;;;7.00;80.30;;;6.28;66.04;94630.34;6077859;23;20205;-93
2022/02/04 07:41:22;;;;;;;14.70;10.25;;;7.10;80.30;;;6.27;65.97;94626.09;6099845;23;20186;-94
2022/02/04 07:43:50;;;;;;;13.40;9.95;;;7.10;80.30;;;6.34;65.86;94629.66;6051043;23;20229;-92
2022/02/04 07:46:19;;;;;;;13.93;10.18;;;7.20;80.30;;;6.37;65.84;94634.50;6099751;23;20189;-94
2022/02/04 07:48:47;;;;;;;17.77;10.75;;;7.20;80.30;;;6.35;65.96;94626.84;6076332;23;20189;-93
2022/02/04 07:51:16;;;;;;;14.07;10.02;;;7.20;80.20;;;6.39;65.73;94635.94;6074389;23;20800;-93
2022/02/04 07:53:44;;;;;;;16.98;11.07;;;7.30;80.20;;;6.38;65.72;94629.13;6074370;23;20193;-92
2022/02/04 07:56:12;;;;;;;12.50;10.07;;;7.30;80.20;;;6.48;65.81;94638.50;6050752;23;20198;-93
2022/02/04 07:58:40;;;;;;;15.20;10.63;;;7.30;80.10;;;6.45;65.76;94631.03;6077032;23;20186;-93
2022/02/04 08:01:08;;;;;;;16.50;10.55;;;7.40;81.00;;;6.49;65.41;94632.31;6077851;23;20182;-94
2022/02/04 08:03:44;;;;;;;14.13;10.15;;;7.30;80.00;;;6.54;65.66;94635.19;6077117;23;20252;-92
2022/02/04 08:06:20;;;;;;;14.57;10.18;;;7.40;80.00;;;6.53;65.53;94642.22;6055549;23;20173;-93
2022/02/04 08:08:57;;;;;;;16.13;10.93;;;7.40;80.00;;;6.58;65.77;94644.31;6078763;23;20174;-93
2022/02/04 08:30:16;;;;;;;13.88;9.82;;;7.50;79.90;;;6.77;65.34;94650.03;6129669;23;20202;-93
2022/02/04 08:33:01;;;;;;;12.10;8.93;;;7.60;80.00;;;6.77;65.71;94645.63;6135035;23;20596;-91
2022/02/04 08:38:35;;;;;;;15.30;10.55;;;7.60;79.90;;;6.81;65.19;94635.66;6154006;23;20193;-93
2022/02/04 08:55:11;;;;;;;13.30;9.68;;;7.70;79.80;;;6.95;65.38;94652.34;6109304;23;20276;-91
2022/02/04 09:00:43;;;;;;;13.25;10.05;;;7.80;79.80;;;6.99;65.23;94653.59;6128841;23;20264;-93
2022/02/04 09:03:27;;;;;;;12.55;9.32;;;7.80;79.80;;;6.98;65.26;94659.81;6132545;23;20236;-92
2022/02/04 09:06:18;;;;;;;11.95;8.95;;;7.80;79.70;;;6.96;65.52;94657.38;6112424;23;20177;-94
2022/02/04 09:08:50;;;;;;;14.40;9.70;;;7.80;79.70;;;7.00;65.11;94661.25;6105562;23;20178;-95
2022/02/04 09:11:39;;;;;;;13.45;9.40;;;7.90;79.80;;;6.99;65.19;94658.81;6129551;23;20173;-94
2022/02/04 09:19:47;;;;;;;12.35;8.48;;;7.90;79.80;;;7.10;65.64;94655.78;6105926;23;20260;-94
2022/02/04 09:22:37;;;;;;;10.93;8.30;;;7.90;79.90;;;7.15;65.51;94648.25;6132253;23;20609;-94
2022/02/04 09:25:07;;;;;;;10.20;7.57;;;8.00;80.00;;;7.24;65.24;94656.81;6104950;23;20241;-94
2022/02/04 09:27:36;;;;;;;13.55;8.10;;;8.00;80.00;;;7.33;65.19;94655.72;6154209;23;20177;-92
2022/02/04 09:30:06;;;;;;;10.80;8.20;;;8.10;80.00;;;7.41;65.02;94664.47;6153711;23;20197;-92
2022/02/04 09:32:37;;;;;;;9.23;7.20;;;8.10;80.00;;;7.49;64.90;94664.41;6129337;23;20177;-92
2022/02/04 09:35:07;;;;;;;9.98;6.93;;;8.20;80.00;;;7.61;64.87;94665.56;6104987;23;20196;-91
2022/02/04 09:37:35;;;;;;;9.82;7.38;;;8.20;80.00;;;7.66;64.57;94657.22;6129270;23;20201;-91
2022/02/04 09:40:07;;;;;;;10.30;7.85;;;8.30;80.70;;;7.74;64.64;94658.91;6104637;23;20201;-92
2022/02/04 09:42:35;;;;;;;10.82;7.72;;;8.30;80.00;;;7.76;64.74;94662.16;6153641;23;20173;-92
2022/02/04 09:45:02;;;;;;;8.63;6.78;;;8.40;80.00;;;7.78;64.99;94657.56;6128536;23;20193;-91
2022/02/04 09:47:36;;;;;;;8.48;6.55;;;8.40;80.00;;;7.83;64.31;94657.84;6129418;23;20613;-90
2022/02/04 09:50:18;;;;;;;8.13;6.15;;;8.60;79.90;;;7.95;64.83;94661.59;6105633;23;20232;-92
2022/02/04 10:13:09;;;;;;;8.20;6.25;;;9.00;79.90;;;8.45;63.79;94642.69;6106016;23;20166;-92
2022/02/04 10:18:51;;;;;;;6.68;5.30;;;9.10;79.40;;;8.56;63.93;94642.22;6080068;23;20746;-92
2022/02/04 10:21:27;;;;;;;5.70;4.88;;;9.10;79.70;;;8.69;64.38;94644.19;6108575;23;20185;-92
2022/02/04 10:23:58;;;;;;;6.70;5.13;;;9.20;79.90;;;8.77;63.99;94638.00;6130433;23;20189;-91
2022/02/04 10:26:26;;;;;;;6.47;5.55;;;9.30;80.00;;;8.83;63.13;94634.63;6107022;23;20181;-92
2022/02/04 10:28:55;;;;;;;7.35;5.50;;;9.40;79.50;;;8.87;63.55;94630.63;6131523;23;20177;-91
2022/02/04 10:31:29;;;;;;;7.07;5.40;;;9.40;79.50;;;8.91;63.21;94608.38;6130863;23;20169;-91
2022/02/04 10:34:14;;;;;;;6.53;5.07;;;9.50;79.10;;;9.03;63.17;94618.31;6155323;23;20256;-92
2022/02/04 10:36:57;;;;;;;5.82;5.10;;;9.50;79.00;;;9.08;62.99;94618.53;6131515;23;20181;-91
2022/02/04 10:42:23;;;;;;;5.93;4.88;;;9.70;78.90;;;9.20;62.37;94619.63;6108445;23;20589;-90
2022/02/04 10:47:59;;;;;;;5.82;4.57;;;9.80;79.10;;;9.23;61.23;94593.09;6110123;23;20180;-91
2022/02/04 11:04:14;;;;;;;4.30;3.33;;;10.10;76.40;;;9.42;60.80;94578.53;6155783;23;20350;-94
2022/02/04 11:07:09;;;;;;;4.20;3.45;;;10.10;76.30;;;9.41;60.56;94576.09;6155649;23;20181;-93
2022/02/04 11:10:06;;;;;;;5.47;3.08;;;10.10;76.10;;;9.40;60.51;94570.06;6130444;23;20201;-93
2022/02/04 11:35:07;;;;;;;2.90;2.60;;;10.20;74.70;;;9.53;58.16;94558.03;6105948;23;20203;-91
2022/02/04 11:55:10;;;;;;;3.13;2.80;;;10.30;74.40;;;9.69;57.14;94526.28;6130182;23;20205;-94
2022/02/04 11:58:03;;;;;;;2.95;2.40;;;10.30;74.10;;;9.66;57.09;94537.16;6105550;23;20208;-93
2022/02/04 12:00:41;;;;;;;3.20;2.90;;;10.30;74.10;;;9.69;56.71;94530.69;6154367;23;20205;-91
2022/02/04 12:03:36;;;;;;;3.20;2.88;;;10.40;73.60;;;9.61;57.17;94537.72;6153664;23;20260;-91
2022/02/04 12:06:04;;;;;;;3.15;2.55;;;10.40;73.70;;;9.60;57.36;94530.88;6106324;23;20208;-92
2022/02/04 12:08:32;;;;;;;3.08;2.40;;;10.30;73.80;;;9.63;58.38;94541.97;6129167;23;20181;-92
2022/02/04 12:11:05;;;;;;;2.67;2.30;;;10.30;74.00;;;9.64;58.51;94527.88;6104240;23;20279;-93
2022/02/04 12:14:06;;;;;;;2.83;2.55;;;10.30;74.20;;;9.66;58.47;94531.91;6129804;23;20177;-90
2022/02/04 12:16:34;;;;;;;2.90;2.60;;;10.40;74.30;;;9.67;58.48;94536.16;6130292;23;20233;-91
2022/02/04 12:19:07;;;;;;;3.13;2.30;;;10.30;74.50;;;9.65;58.04;94532.09;6129643;23;20283;-91
2022/02/04 12:21:45;;;;;;;3.20;2.40;;;10.30;74.10;;;9.58;57.81;94530.28;6128607;23;20263;-91
2022/02/04 12:24:36;;;;;;;2.88;2.50;;;10.40;73.60;;;9.59;58.00;94525.81;6129261;23;20205;-92
2022/02/04 12:27:27;;;;;;;2.35;2.15;;;10.40;73.80;;;9.60;57.45;94538.72;6129702;23;20558;-91
2022/02/04 12:29:56;;;;;;;2.83;2.53;;;10.30;73.60;;;9.58;57.38;94529.44;6104462;23;20208;-92
2022/02/04 12:32:24;;;;;;;8.35;5.53;;;10.30;73.50;;;9.54;57.73;94523.00;6128825;23;20181;-91
2022/02/04 12:34:53;;;;;;;4.68;3.20;;;10.30;73.70;;;9.58;58.28;94527.66;6104942;23;20719;-90
2022/02/04 12:37:20;;;;;;;3.85;2.88;;;10.30;73.90;;;9.58;58.90;94511.94;6104881;23;20236;-90
2022/02/04 12:39:48;;;;;;;5.57;3.75;;;10.30;74.40;;;9.68;58.79;94516.81;6104475;23;20197;-91
2022/02/04 12:42:19;;;;;;;4.88;3.60;;;10.30;74.70;;;9.72;58.91;94523.25;6103967;23;20240;-91
2022/02/04 12:44:47;;;;;;;5.50;3.63;;;10.30;74.50;;;9.67;58.47;94524.88;6129016;23;20197;-91
2022/02/04 12:47:23;;;;;;;16.15;8.90;;;10.30;74.20;;;9.60;57.91;94516.97;6128635;23;20196;-91
2022/02/04 12:49:54;;;;;;;6.30;4.78;;;10.30;73.30;;;9.52;58.22;94507.50;6129115;23;20201;-90
2022/02/04 12:52:41;;;;;;;3.78;3.03;;;10.30;73.80;;;9.50;58.09;94508.69;6129322;23;20609;-92
2022/02/04 12:55:21;;;;;;;2.70;2.40;;;10.30;73.80;;;9.56;58.36;94511.31;6152891;23;20275;-90
2022/02/04 13:03:20;;;;;;;2.50;2.30;;;10.30;73.40;;;9.35;58.03;94495.72;6130785;23;20624;-91
2022/02/04 13:11:17;;;;;;;2.70;2.45;;;10.20;73.90;;;9.44;57.74;94500.59;6129085;23;20256;-90
2022/02/04 13:13:55;;;;;;;3.38;2.92;;;10.20;73.60;;;9.47;58.49;94491.53;6128214;23;20623;-90
2022/02/04 13:16:29;;;;;;;2.75;2.45;;;10.20;74.00;;;9.56;57.92;94494.81;6106752;23;20184;-91
2022/02/04 13:19:00;;;;;;;2.90;2.60;;;10.20;73.70;;;9.55;57.57;94499.22;6105257;23;20671;-91
2022/02/04 13:21:29;;;;;;;3.50;2.90;;;10.20;73.50;;;9.53;58.38;94482.94;6128873;23;20187;-91
2022/02/04 13:24:07;;;;;;;6.32;4.30;;;10.20;73.80;;;9.57;58.20;94486.75;6129125;23;20177;-91
2022/02/04 13:26:35;;;;;;;6.32;5.22;;;10.20;73.40;;;9.54;58.05;94486.34;6105640;23;20260;-91
2022/02/04 13:29:05;;;;;;;6.40;4.85;;;10.20;73.60;;;9.47;57.78;94493.34;6129474;23;20189;-91
2022/02/04 13:31:37;;;;;;;4.03;3.40;;;10.20;73.20;;;9.38;57.63;94483.06;6129570;23;20177;-91
2022/02/04 13:34:10;;;;;;;3.80;3.40;;;10.20;73.20;;;9.34;58.05;94479.22;6153898;23;20197;-91
2022/02/04 13:36:45;;;;;;;6.43;4.95;;;10.20;73.40;;;9.39;58.24;94478.63;6154192;23;20178;-91
2022/02/04 13:44:35;;;;;;;3.58;3.10;;;10.20;73.20;;;9.40;57.16;94457.50;6105236;23;20243;-91
2022/02/04 13:53:01;;;;;;;4.65;3.35;;;10.10;73.10;;;9.50;58.02;94466.81;6129762;23;20200;-91
2022/02/04 13:58:36;;;;;;;3.70;3.10;;;10.20;73.10;;;9.65;57.26;94451.72;6131446;23;20209;-90
2022/02/04 14:01:26;;;;;;;4.82;2.58;;;10.30;73.20;;;9.73;57.00;94464.66;6110388;23;20173;-90
2022/02/04 14:04:02;;;;;;;5.30;4.22;;;10.40;73.00;;;9.78;57.36;94466.69;6107016;23;20631;-91
2022/02/04 14:06:32;;;;;;;3.90;3.50;;;10.50;73.00;;;9.86;57.51;94458.66;6108033;23;20617;-92
2022/02/04 14:09:14;;;;;;;3.88;3.30;;;10.50;73.30;;;9.92;57.28;94451.78;6083675;23;20201;-89
2022/02/04 14:11:43;;;;;;;3.42;3.13;;;10.60;73.90;;;9.94;57.91;94444.56;6107596;23;20175;-90
2022/02/04 14:14:25;;;;;;;4.10;3.50;;;10.70;73.30;;;10.00;57.41;94442.97;6130941;23;20205;-90
2022/02/04 14:17:06;;;;;;;4.85;3.80;;;10.70;72.60;;;10.04;57.92;94442.34;6131942;23;20192;-90
2022/02/04 14:19:35;;;;;;;7.20;5.65;;;10.80;73.00;;;10.14;57.65;94449.81;6131265;23;20235;-90
2022/02/04 14:22:05;;;;;;;4.78;3.80;;;10.90;73.00;;;10.13;57.81;94434.28;6107064;23;20229;-90
2022/02/04 14:24:33;;;;;;;5.80;4.15;;;10.80;73.00;;;10.11;57.15;94444.97;6130988;23;20196;-89
2022/02/04 14:27:01;;;;;;;5.10;4.43;;;10.90;72.80;;;10.03;56.88;94432.88;6082483;23;20173;-89
2022/02/04 14:29:44;;;;;;;6.53;5.10;;;10.90;72.30;;;9.97;57.23;94432.88;6107045;23;20256;-89
2022/02/04 14:32:24;;;;;;;3.50;2.75;;;10.80;72.40;;;9.91;56.72;94429.22;6108867;23;20173;-89
2022/02/04 14:54:12;;;;;;;7.45;4.65;;;10.30;71.50;;;9.16;56.85;94430.00;6134260;23;20208;-90
2022/02/04 15:02:00;;;;;;;7.35;5.00;;;10.10;71.80;;;8.92;56.75;94428.69;6130366;23;20232;-88
2022/02/04 15:04:48;;;;;;;4.75;3.30;;;9.90;73.30;;;8.91;56.96;94440.97;6107420;23;20600;-89
2022/02/04 15:07:18;;;;;;;3.22;2.55;;;9.90;73.20;;;8.88;56.94;94443.16;6110178;23;20174;-90
2022/02/04 15:09:55;;;;;;;4.55;3.75;;;9.80;73.10;;;8.80;56.94;94441.50;6154389;23;20204;-89
2022/02/04 15:12:24;;;;;;;3.67;2.63;;;9.80;73.20;;;8.75;56.97;94436.03;6154379;23;20350;-90
2022/02/04 15:14:52;;;;;;;4.38;3.10;;;9.80;73.30;;;8.74;56.78;94444.88;6105453;23;20563;-90
2022/02/04 15:17:22;;;;;;;4.82;3.00;;;9.70;73.10;;;8.72;57.06;94446.91;6106158;23;20193;-91
2022/02/04 15:19:53;;;;;;;5.22;3.75;;;9.60;73.30;;;8.62;57.32;94442.00;6106043;23;20545;-89
2022/02/04 15:22:24;;;;;;;4.75;3.30;;;9.60;73.40;;;8.55;57.22;94435.91;6106214;23;20176;-90
2022/02/04 15:24:56;;;;;;;3.25;2.95;;;9.60;73.40;;;8.50;56.91;94452.16;6107234;23;20252;-90
2022/02/04 15:27:24;;;;;;;5.75;3.33;;;9.50;73.10;;;8.43;56.54;94448.66;6131573;23;20174;-89
2022/02/04 15:29:53;;;;;;;3.90;3.50;;;9.50;73.10;;;8.34;57.13;94443.56;6105823;23;20201;-88
2022/02/04 15:32:22;;;;;;;4.28;3.60;;;9.40;73.10;;;8.34;57.35;94459.25;6082996;23;20635;-89
2022/02/04 15:34:52;;;;;;;3.92;3.17;;;9.30;73.20;;;8.22;57.43;94442.47;6106221;23;20561;-90
2022/02/04 15:37:20;;;;;;;3.40;3.10;;;9.30;73.20;;;8.23;56.71;94457.16;6106245;23;20176;-89
2022/02/04 15:39:47;;;;;;;3.55;3.25;;;9.20;73.20;;;8.13;57.42;94447.03;6130200;23;20268;-89
2022/02/04 15:42:17;;;;;;;3.60;3.17;;;9.20;73.40;;;8.11;57.40;94446.41;6155076;23;20177;-89
2022/02/04 15:45:01;;;;;;;5.18;3.40;;;9.20;73.50;;;8.03;57.35;94430.84;6130396;23;20197;-90
2022/02/04 15:47:38;;;;;;;3.50;3.20;;;9.20;73.60;;;7.96;57.53;94435.25;6154382;23;20197;-90
2022/02/04 15:51:02;;;;;;;3.80;2.97;;;9.10;74.40;;;7.94;57.99;94435.41;6131954;23;20193;-91
2022/02/04 15:56:06;;;;;;;4.35;3.42;;;8.90;74.60;;;7.90;58.10;94442.00;6128784;23;20201;-89
2022/02/04 16:01:25;;;;;;;5.00;3.35;;;8.80;73.80;;;7.78;58.50;94430.44;6108480;23;20232;-89
2022/02/04 16:04:02;;;;;;;5.15;3.67;;;8.90;74.00;;;7.73;58.66;94427.59;6086159;23;20177;-90
2022/02/04 16:06:30;;;;;;;8.75;5.30;;;8.70;73.90;;;7.69;58.71;94435.78;6154501;23;20181;-91
2022/02/04 16:08:58;;;;;;;7.63;4.35;;;8.70;74.00;;;7.73;58.77;94432.81;6106130;23;20201;-90
2022/02/04 16:17:11;;;;;;;21.17;8.82;;;8.60;74.20;;;7.64;58.97;94432.91;6129111;23;20196;-90
2022/02/04 16:19:46;;;;;;;14.20;6.82;;;8.60;74.30;;;7.49;58.97;94411.28;6129920;23;20542;-88
2022/02/04 16:25:10;;;;;;;9.00;5.00;;;8.50;74.20;;;7.45;58.91;94420.47;6129537;23;20679;-91
2022/02/04 16:30:08;;;;;;;6.93;4.85;;;8.40;74.30;;;7.27;59.38;94424.28;6130358;23;20201;-90
2022/02/04 16:32:36;;;;;;;10.43;6.10;;;8.40;74.30;;;7.24;59.40;94421.22;6105439;23;20220;-91
2022/02/04 16:35:05;;;;;;;8.57;5.30;;;8.30;74.30;;;7.16;59.38;94415.13;6082352;23;20197;-91
2022/02/04 16:37:36;;;;;;;6.40;4.57;;;8.30;74.70;;;7.10;59.19;94407.25;6081963;23;20204;-90
2022/02/04 16:40:12;;;;;;;7.22;5.40;;;8.20;74.70;;;7.01;59.63;94402.13;6104917;23;20213;-91
2022/02/04 16:42:43;;;;;;;12.68;7.22;;;8.00;74.20;;;7.00;59.96;94405.72;6128407;23;20534;-92
2022/02/04 16:45:11;;;;;;;10.55;6.43;;;8.20;74.60;;;7.01;59.85;94409.16;6151705;23;20244;-93
2022/02/04 16:47:39;;;;;;;9.50;5.85;;;8.10;74.60;;;7.01;60.06;94404.72;6127695;23;20177;-93
2022/02/04 16:50:07;;;;;;;14.60;7.95;;;8.10;74.70;;;7.08;59.93;94409.22;6102376;23;20208;-92
2022/02/04 16:52:37;;;;;;;11.85;6.97;;;8.00;74.50;;;7.08;59.96;94407.44;6104080;23;20205;-92
2022/02/04 16:55:11;;;;;;;16.05;9.02;;;8.00;74.70;;;7.09;59.89;94403.00;6128722;23;20197;-92
2022/02/04 16:57:40;;;;;;;15.80;8.85;;;8.00;74.70;;;7.12;59.95;94400.03;6080010;23;20209;-92
2022/02/04 17:00:34;;;;;;;9.48;6.18;;;8.10;75.00;;;7.16;60.13;94391.66;6102237;23;20216;-94
2022/02/04 17:03:08;;;;;;;11.45;7.22;;;8.00;74.80;;;7.16;60.17;94386.44;6059760;23;20619;-92
2022/02/04 17:05:59;;;;;;;20.17;11.32;;;8.00;75.00;;;7.20;60.07;94394.69;6148528;23;20232;-93
2022/02/04 17:08:52;;;;;;;16.15;9.65;;;8.10;75.00;;;7.19;59.95;94375.66;6126607;23;20200;-92
2022/02/04 17:11:48;;;;;;;11.60;7.40;;;8.20;75.10;;;7.15;60.02;94381.41;6114550;23;20620;-93
2022/02/04 17:14:22;;;;;;;14.50;8.70;;;8.10;75.00;;;7.16;59.94;94383.03;6149162;23;20216;-92
2022/02/04 17:17:25;;;;;;;12.15;7.40;;;8.20;75.00;;;7.29;60.34;94405.84;6129242;23;20563;-92
2022/02/04 17:23:44;;;;;;;9.70;6.78;;;8.10;75.10;;;7.22;60.28;94370.03;6025034;23;20183;-94
2022/02/04 17:27:16;;;;;;;10.82;6.97;;;8.10;75.00;;;7.26;60.32;94375.69;5916709;24;20186;-93